Time;durP1;ratioP1;P1;durP2;ratioP2;P2;SDS_P1;SDS_P2;PMS_P1;PMS_P2;Temp;Humidity;BMP_temperature;BMP_pressure;BME280_temperature;BME280_humidity;BME280_pressure;Samples;Min_cycle;Max_cycle;Signal;HPM_P1;HPM_P2
2022/11/17 00:01:47;;;;;;;0.45;0.00;;;;;;;8.61;100.00;98611.53;5250939;28;20017;-70
2022/11/17 00:04:18;;;;;;;0.10;0.00;;;;;;;8.61;100.00;98598.25;5246691;28;20372;-70
2022/11/17 00:06:49;;;;;;;0.20;0.00;;;;;;;8.63;100.00;98593.59;5248313;28;20036;-69
2022/11/17 00:09:21;;;;;;;0.05;0.00;;;;;;;8.63;100.00;98572.34;5234581;28;20135;-69
2022/11/17 00:14:31;;;;;;;0.63;0.00;;;;;;;8.64;100.00;98578.47;5233315;28;20025;-69
2022/11/17 00:14:43;;;;;;;0.00;0.00;;;;;;;8.65;100.00;98566.88;5232986;28;20044;-70
2022/11/17 00:17:15;;;;;;;0.28;0.10;;;;;;;8.66;100.00;98584.47;5236279;28;20119;-68
2022/11/17 00:22:36;;;;;;;0.05;0.00;;;;;;;8.68;100.00;98571.84;5246250;28;20447;-68
2022/11/17 00:25:07;;;;;;;0.50;0.10;;;;;;;8.69;100.00;98559.41;5249431;28;20041;-69
2022/11/17 00:27:38;;;;;;;0.22;0.10;;;;;;;8.70;100.00;98561.06;5252495;28;20035;-69
2022/11/17 00:34:03;;;;;;;0.10;0.00;;;;;;;8.71;100.00;98547.59;5248822;28;20094;-70
2022/11/17 00:35:53;;;;;;;0.30;0.10;;;;;;;8.73;100.00;98528.84;5239139;28;20041;-70
2022/11/17 00:38:25;;;;;;;0.20;0.00;;;;;;;8.76;100.00;98517.88;5253673;28;20351;-71
2022/11/17 00:40:57;;;;;;;0.50;0.10;;;;;;;8.78;100.00;98510.56;5252721;28;20082;-70
2022/11/17 00:43:28;;;;;;;0.20;0.03;;;;;;;8.79;100.00;98515.72;5247157;28;20029;-70
2022/11/17 00:45:59;;;;;;;0.40;0.13;;;;;;;8.80;100.00;98517.38;5253168;28;20528;-69
2022/11/17 00:48:31;;;;;;;0.30;0.10;;;;;;;8.80;100.00;98509.41;5251789;28;20031;-69
2022/11/17 00:51:03;;;;;;;0.60;0.10;;;;;;;8.78;100.00;98511.41;5251140;28;20041;-69
2022/11/17 00:53:34;;;;;;;0.35;0.00;;;;;;;8.81;100.00;98489.78;5251656;28;20041;-69
2022/11/17 00:56:06;;;;;;;0.20;0.00;;;;;;;8.80;100.00;98482.81;5246767;28;20467;-68
2022/11/17 00:58:37;;;;;;;0.20;0.08;;;;;;;8.79;100.00;98490.97;5251697;28;20107;-69
2022/11/17 01:01:09;;;;;;;0.05;0.00;;;;;;;8.82;100.00;98501.25;5247891;28;20387;-69
2022/11/17 01:03:40;;;;;;;0.70;0.10;;;;;;;8.81;100.00;98471.19;5241741;28;20086;-69
2022/11/17 01:06:14;;;;;;;0.20;0.00;;;;;;;8.82;100.00;98490.63;5248507;28;20071;-68
2022/11/17 01:08:46;;;;;;;0.20;0.08;;;;;;;8.81;100.00;98471.19;5250389;28;20519;-68
2022/11/17 01:11:18;;;;;;;0.30;0.00;;;;;;;8.83;100.00;98471.03;5246790;28;20082;-67
2022/11/17 01:13:54;;;;;;;0.00;0.00;;;;;;;8.85;100.00;98468.19;5252897;28;20032;-68
2022/11/17 01:16:26;;;;;;;0.43;0.10;;;;;;;8.84;100.00;98454.09;5254293;28;20090;-67
2022/11/17 01:18:59;;;;;;;0.20;0.00;;;;;;;8.85;100.00;98455.72;5250923;28;20044;-68
2022/11/17 01:21:31;;;;;;;0.28;0.10;;;;;;;8.84;100.00;98456.75;5247300;28;20083;-67
2022/11/17 01:24:03;;;;;;;0.90;0.10;;;;;;;8.86;100.00;98468.03;5248470;28;20155;-68
2022/11/17 01:26:36;;;;;;;0.15;0.00;;;;;;;8.89;100.00;98461.56;5245624;28;20025;-68
2022/11/17 01:29:09;;;;;;;0.35;0.00;;;;;;;8.90;100.00;98452.56;5234262;28;21041;-67
2022/11/17 01:31:42;;;;;;;0.10;0.00;;;;;;;8.91;100.00;98454.25;5243377;28;20074;-67
2022/11/17 01:34:13;;;;;;;0.30;0.10;;;;;;;8.92;100.00;98454.06;5244258;28;20025;-67
2022/11/17 01:39:34;;;;;;;0.20;0.00;;;;;;;8.95;100.00;98432.44;5249827;28;20049;-68
2022/11/17 01:42:13;;;;;;;0.20;0.00;;;;;;;8.96;100.00;98417.34;5250282;28;20041;-67
2022/11/17 01:44:50;;;;;;;0.00;0.00;;;;;;;8.96;100.00;98418.16;5252905;28;20467;-67
2022/11/17 01:47:24;;;;;;;0.00;0.00;;;;;;;8.96;100.00;98434.13;5251882;28;20047;-66
2022/11/17 01:50:08;;;;;;;0.25;0.00;;;;;;;8.98;100.00;98448.09;5249755;28;20115;-69
2022/11/17 01:52:39;;;;;;;0.00;0.00;;;;;;;8.97;100.00;98434.94;5253583;28;20395;-66
2022/11/17 01:55:11;;;;;;;0.10;0.00;;;;;;;8.95;100.00;98431.63;5233672;28;20040;-66
2022/11/17 01:57:48;;;;;;;0.10;0.00;;;;;;;9.00;100.00;98435.44;5244869;28;20049;-67
2022/11/17 02:00:20;;;;;;;0.00;0.00;;;;;;;9.00;100.00;98430.13;5243587;28;20465;-67
2022/11/17 02:02:51;;;;;;;0.20;0.00;;;;;;;9.01;100.00;98438.94;5249241;28;20048;-66
2022/11/17 02:05:50;;;;;;;0.10;0.00;;;;;;;9.03;100.00;98413.84;5244343;28;20056;-66
2022/11/17 02:08:24;;;;;;;2.22;0.10;;;;;;;9.01;100.00;98426.50;5247966;28;20033;-66
2022/11/17 02:10:55;;;;;;;0.00;0.00;;;;;;;9.04;100.00;98430.63;5245857;28;20036;-66
2022/11/17 02:13:27;;;;;;;0.00;0.00;;;;;;;9.04;100.00;98425.31;5254540;28;20033;-67
2022/11/17 02:15:58;;;;;;;0.00;0.00;;;;;;;9.05;100.00;98419.00;5247840;28;20483;-66
2022/11/17 02:18:30;;;;;;;0.10;0.00;;;;;;;9.08;100.00;98418.66;5251778;28;20036;-66
2022/11/17 02:21:42;;;;;;;0.00;0.00;;;;;;;9.12;100.00;98405.84;5250460;28;20021;-66
2022/11/17 02:24:52;;;;;;;0.00;0.00;;;;;;;9.12;100.00;98404.03;5250419;28;20391;-66
2022/11/17 02:27:43;;;;;;;0.00;0.00;;;;;;;9.12;100.00;98393.38;5219684;28;20029;-66
2022/11/17 02:30:19;;;;;;;0.10;0.00;;;;;;;9.13;100.00;98379.09;5245562;28;20029;-66
2022/11/17 02:33:31;;;;;;;0.00;0.00;;;;;;;9.13;100.00;98367.63;5238771;28;20032;-66
2022/11/17 02:36:46;;;;;;;0.00;0.00;;;;;;;9.14;100.00;98358.63;5225596;28;20455;-66
2022/11/17 02:39:26;;;;;;;0.00;0.00;;;;;;;9.12;100.00;98363.28;5203846;28;20578;-65
2022/11/17 02:42:07;;;;;;;0.10;0.00;;;;;;;9.11;100.00;98351.84;5239482;28;20550;-66
2022/11/17 02:44:41;;;;;;;0.00;0.00;;;;;;;9.10;100.00;98344.84;5240977;28;20044;-65
2022/11/17 02:47:27;;;;;;;;;;;;;;;9.11;100.00;98349.16;5241437;28;21455;-66
2022/11/17 02:50:04;;;;;;;0.10;0.00;;;;;;;9.08;100.00;98340.69;5239969;28;19916;-65
2022/11/17 02:52:35;;;;;;;0.10;0.00;;;;;;;9.06;100.00;98338.19;5238133;28;20474;-66
2022/11/17 02:55:09;;;;;;;0.00;0.00;;;;;;;9.05;100.00;98335.69;5238255;28;20040;-66
2022/11/17 02:57:40;;;;;;;0.03;0.00;;;;;;;9.04;100.00;98326.91;5240308;28;20049;-66
2022/11/17 03:00:15;;;;;;;0.00;0.00;;;;;;;9.03;100.00;98320.75;5239914;28;20698;-65
2022/11/17 03:02:46;;;;;;;0.10;0.00;;;;;;;9.02;100.00;98327.06;5240269;28;20426;-66
2022/11/17 03:05:26;;;;;;;0.00;0.00;;;;;;;9.03;100.00;98333.22;5239540;28;20029;-65
2022/11/17 03:08:13;;;;;;;0.00;0.00;;;;;;;9.03;100.00;98325.22;5240443;28;20063;-66
2022/11/17 03:10:56;;;;;;;0.00;0.00;;;;;;;9.01;100.00;98316.59;5245716;28;21017;-65
2022/11/17 03:13:46;;;;;;;0.00;0.00;;;;;;;8.99;100.00;98321.25;5241201;28;20040;-65
2022/11/17 03:16:37;;;;;;;0.00;0.00;;;;;;;8.99;100.00;98300.81;5239601;28;20024;-65
2022/11/17 03:19:18;;;;;;;0.00;0.00;;;;;;;8.96;100.00;98311.78;5236140;28;20028;-66
2022/11/17 03:22:02;;;;;;;0.00;0.00;;;;;;;8.93;100.00;98306.81;5236652;28;20044;-65
2022/11/17 03:24:48;;;;;;;0.00;0.00;;;;;;;8.91;100.00;98294.69;5242156;28;20033;-66
2022/11/17 03:27:24;;;;;;;0.00;0.00;;;;;;;8.87;100.00;98296.84;5240374;28;20086;-65
2022/11/17 03:29:59;;;;;;;0.00;0.00;;;;;;;8.82;100.00;98281.41;5239599;28;20036;-65
2022/11/17 03:32:35;;;;;;;0.00;0.00;;;;;;;8.80;100.00;98279.91;5235124;28;20147;-67
2022/11/17 03:35:11;;;;;;;0.00;0.00;;;;;;;8.78;100.00;98281.91;5236363;28;20029;-65
2022/11/17 03:37:48;;;;;;;0.00;0.00;;;;;;;8.75;100.00;98283.09;5243097;28;20025;-65
2022/11/17 03:40:23;;;;;;;0.00;0.00;;;;;;;8.73;100.00;98274.44;5241395;28;20544;-65
2022/11/17 03:43:00;;;;;;;0.00;0.00;;;;;;;8.71;100.00;98270.31;5240090;28;20037;-66
2022/11/17 03:45:38;;;;;;;0.00;0.00;;;;;;;8.69;100.00;98265.16;5240411;28;20060;-66
2022/11/17 03:48:15;;;;;;;0.00;0.00;;;;;;;8.68;100.00;98260.00;5241235;28;20037;-65
2022/11/17 03:50:57;;;;;;;0.00;0.00;;;;;;;8.68;100.00;98250.19;5241257;28;20025;-65
2022/11/17 03:53:29;;;;;;;0.03;0.00;;;;;;;8.69;100.00;98245.72;5241966;28;20524;-66
2022/11/17 03:56:18;;;;;;;0.10;0.00;;;;;;;8.71;100.00;98244.56;5243868;28;20826;-65
2022/11/17 03:59:00;;;;;;;0.00;0.00;;;;;;;8.75;100.00;98258.34;5240665;28;20039;-65
2022/11/17 04:01:32;;;;;;;0.00;0.00;;;;;;;8.77;100.00;98257.16;5244894;28;20498;-65
2022/11/17 04:04:04;;;;;;;0.00;0.00;;;;;;;8.79;100.00;98255.16;5239528;28;20039;-66
2022/11/17 04:06:35;;;;;;;0.00;0.00;;;;;;;8.85;100.00;98244.84;5241722;28;20033;-65
2022/11/17 04:09:06;;;;;;;0.00;0.00;;;;;;;8.87;100.00;98229.56;5241843;28;20025;-65
2022/11/17 04:17:18;;;;;;;0.00;0.00;;;;;;;8.96;100.00;98244.50;5241748;28;20045;-65
2022/11/17 04:19:49;;;;;;;0.00;0.00;;;;;;;8.98;100.00;98245.16;5242567;28;20033;-65
2022/11/17 04:22:20;;;;;;;0.20;0.03;;;;;;;9.00;100.00;98259.09;5242469;28;20044;-66
2022/11/17 04:24:51;;;;;;;0.00;0.00;;;;;;;9.01;100.00;98248.28;5243419;28;20155;-66
2022/11/17 04:30:13;;;;;;;0.00;0.00;;;;;;;9.04;100.00;98228.50;5240702;28;20096;-67
2022/11/17 04:32:44;;;;;;;0.00;0.00;;;;;;;9.04;100.00;98255.09;5239996;28;20112;-68
2022/11/17 04:35:15;;;;;;;0.13;0.00;;;;;;;9.03;100.00;98248.94;5240963;28;20033;-68
2022/11/17 04:37:47;;;;;;;0.10;0.00;;;;;;;9.05;100.00;98240.81;5240158;28;20071;-69
2022/11/17 04:40:18;;;;;;;0.00;0.00;;;;;;;9.05;100.00;98208.03;5240744;28;20067;-70
2022/11/17 04:42:49;;;;;;;0.00;0.00;;;;;;;9.06;100.00;98209.72;5244642;28;20052;-70
2022/11/17 04:45:20;;;;;;;0.03;0.00;;;;;;;9.06;100.00;98199.06;5240517;28;20029;-70
2022/11/17 04:47:52;;;;;;;0.10;0.00;;;;;;;9.05;100.00;98203.56;5240651;28;20067;-69
2022/11/17 04:50:23;;;;;;;0.00;0.00;;;;;;;9.06;100.00;98193.75;5241127;28;20079;-71
2022/11/17 04:52:54;;;;;;;0.00;0.00;;;;;;;9.05;100.00;98198.25;5242128;28;20029;-70
2022/11/17 04:55:25;;;;;;;0.03;0.00;;;;;;;9.05;100.00;98192.06;5239659;28;20033;-69
2022/11/17 04:57:57;;;;;;;0.03;0.00;;;;;;;9.06;100.00;98189.25;5213841;28;20053;-71
2022/11/17 05:00:28;;;;;;;0.00;0.00;;;;;;;9.06;100.00;98185.78;5241100;28;20044;-69
2022/11/17 05:02:59;;;;;;;0.00;0.00;;;;;;;9.05;100.00;98195.59;5239429;28;20029;-69
2022/11/17 05:05:30;;;;;;;0.10;0.00;;;;;;;9.06;100.00;98191.09;5239256;28;20505;-71
2022/11/17 05:08:02;;;;;;;0.00;0.00;;;;;;;9.06;100.00;98197.22;5242829;28;20057;-70
2022/11/17 05:13:26;;;;;;;0.00;0.00;;;;;;;9.09;100.00;98206.69;5239314;28;20068;-70
2022/11/17 05:18:46;;;;;;;0.00;0.00;;;;;;;9.12;100.00;98212.50;5241971;28;20037;-70
2022/11/17 05:21:18;;;;;;;0.00;0.00;;;;;;;9.14;100.00;98218.47;5238963;28;20028;-71
2022/11/17 05:23:55;;;;;;;0.00;0.00;;;;;;;9.17;100.00;98251.91;5241785;28;20028;-73
2022/11/17 05:26:29;;;;;;;0.00;0.00;;;;;;;9.18;100.00;98242.91;5243055;28;20021;-70
2022/11/17 05:29:03;;;;;;;0.00;0.00;;;;;;;9.19;100.00;98247.22;5241910;28;20198;-70
2022/11/17 05:31:34;;;;;;;0.00;0.00;;;;;;;9.18;100.00;98246.38;5238978;28;21647;-70
2022/11/17 05:34:08;;;;;;;0.00;0.00;;;;;;;9.20;100.00;98248.88;5240834;28;21068;-70
2022/11/17 05:36:40;;;;;;;0.00;0.00;;;;;;;9.19;100.00;98248.06;5240924;28;20119;-70
2022/11/17 05:39:12;;;;;;;0.00;0.00;;;;;;;9.19;100.00;98245.38;5239726;28;20028;-70
2022/11/17 05:41:44;;;;;;;0.00;0.00;;;;;;;9.20;100.00;98243.53;5242248;28;20044;-70
2022/11/17 05:44:15;;;;;;;0.00;0.00;;;;;;;9.19;100.00;98245.38;5236390;28;20029;-71
2022/11/17 05:46:46;;;;;;;0.00;0.00;;;;;;;9.19;100.00;98253.38;5239663;28;20025;-70
2022/11/17 05:49:17;;;;;;;0.00;0.00;;;;;;;9.19;100.00;98253.38;5221425;28;20025;-69
2022/11/17 05:51:49;;;;;;;0.00;0.00;;;;;;;9.20;100.00;98255.03;5239712;28;20112;-69
2022/11/17 05:54:20;;;;;;;0.05;0.00;;;;;;;9.20;100.00;98251.53;5241956;28;20043;-68
2022/11/17 05:56:57;;;;;;;0.10;0.00;;;;;;;9.20;100.00;98260.38;5238923;28;20040;-70
2022/11/17 05:59:43;;;;;;;0.00;0.00;;;;;;;9.21;100.00;98271.81;5240108;28;20029;-68
2022/11/17 06:02:30;;;;;;;0.20;0.00;;;;;;;9.21;100.00;98267.31;5241626;28;20044;-69
2022/11/17 06:05:02;;;;;;;0.20;0.00;;;;;;;9.21;100.00;98267.31;5236856;28;20036;-69
2022/11/17 06:07:35;;;;;;;0.00;0.00;;;;;;;9.19;100.00;98268.50;5241260;28;21876;-68
2022/11/17 06:10:07;;;;;;;0.10;0.00;;;;;;;9.20;100.00;98268.34;5239589;28;20033;-68
2022/11/17 06:12:38;;;;;;;0.30;0.00;;;;;;;9.21;100.00;98277.16;5241273;28;20060;-68
2022/11/17 06:15:09;;;;;;;0.00;0.00;;;;;;;9.20;100.00;98273.66;5241427;28;20071;-68
2022/11/17 06:17:53;;;;;;;0.10;0.00;;;;;;;9.21;100.00;98283.28;5238865;28;20111;-68
2022/11/17 06:20:29;;;;;;;0.00;0.00;;;;;;;9.19;100.00;98287.97;5240763;28;20531;-67
2022/11/17 06:23:04;;;;;;;0.00;0.00;;;;;;;9.19;100.00;98293.28;5241329;28;20029;-68
2022/11/17 06:25:37;;;;;;;0.00;0.00;;;;;;;9.18;100.00;98296.09;5243427;28;20029;-68
2022/11/17 06:28:13;;;;;;;0.00;0.00;;;;;;;9.17;100.00;98299.78;5240450;28;20483;-67
2022/11/17 06:30:44;;;;;;;0.00;0.00;;;;;;;9.14;100.00;98292.13;5240717;28;20029;-67
2022/11/17 06:33:18;;;;;;;0.00;0.00;;;;;;;9.12;100.00;98297.63;5238855;28;20048;-67
2022/11/17 06:35:49;;;;;;;0.00;0.00;;;;;;;9.09;100.00;98297.97;5240379;28;20067;-67
2022/11/17 06:38:20;;;;;;;0.20;0.00;;;;;;;9.06;100.00;98306.28;5239515;28;20473;-67
2022/11/17 06:40:51;;;;;;;0.00;0.00;;;;;;;9.04;100.00;98295.00;5240356;28;20021;-68
2022/11/17 06:43:23;;;;;;;0.00;0.00;;;;;;;9.00;100.00;98299.00;5237422;28;20056;-67
2022/11/17 06:45:54;;;;;;;0.00;0.00;;;;;;;8.97;100.00;98297.47;5240609;28;20025;-67
2022/11/17 06:48:26;;;;;;;0.00;0.00;;;;;;;8.94;100.00;98302.34;5238696;28;20494;-67
2022/11/17 06:50:57;;;;;;;0.00;0.00;;;;;;;8.91;100.00;98305.31;5242874;28;20033;-68
2022/11/17 06:53:29;;;;;;;0.00;0.00;;;;;;;8.89;100.00;98318.78;5238750;28;20044;-68
2022/11/17 06:58:36;;;;;;;0.00;0.00;;;;;;;8.85;100.00;98319.28;5241335;28;20064;-69
2022/11/17 07:01:09;;;;;;;0.00;0.00;;;;;;;8.82;100.00;98331.94;5239182;28;20037;-68
2022/11/17 07:03:44;;;;;;;0.00;0.00;;;;;;;8.79;100.00;98326.94;5237706;28;20317;-68
2022/11/17 07:06:17;;;;;;;0.00;0.00;;;;;;;8.80;100.00;98325.09;5239925;28;20080;-67
2022/11/17 07:08:49;;;;;;;0.00;0.00;;;;;;;8.76;100.00;98327.28;5243234;28;20029;-68
2022/11/17 07:11:21;;;;;;;0.00;0.00;;;;;;;8.76;100.00;98324.63;5244835;28;20743;-68
2022/11/17 07:13:52;;;;;;;0.00;0.00;;;;;;;8.73;100.00;98330.28;5236366;28;21142;-68
2022/11/17 07:16:23;;;;;;;0.00;0.00;;;;;;;8.71;100.00;98334.94;5236400;28;20040;-68
2022/11/17 07:18:54;;;;;;;0.00;0.00;;;;;;;8.71;100.00;98337.59;5241383;28;20503;-67
2022/11/17 07:21:26;;;;;;;0.40;0.00;;;;;;;8.71;100.00;98328.78;5248476;28;20036;-68
2022/11/17 07:23:57;;;;;;;0.00;0.00;;;;;;;8.71;100.00;98334.94;5249706;28;20033;-68
2022/11/17 07:26:28;;;;;;;0.05;0.00;;;;;;;8.69;100.00;98344.91;5243698;28;20430;-68
2022/11/17 07:29:00;;;;;;;0.00;0.00;;;;;;;8.67;100.00;98340.72;5249105;28;20033;-67
2022/11/17 07:31:33;;;;;;;0.10;0.00;;;;;;;8.64;100.00;98349.88;5254841;28;20437;-67
2022/11/17 07:34:04;;;;;;;0.00;0.00;;;;;;;8.64;100.00;98348.03;5258806;28;20092;-67
2022/11/17 07:36:36;;;;;;;0.00;0.00;;;;;;;8.62;100.00;98346.56;5256362;28;20385;-67
2022/11/17 07:39:07;;;;;;;0.00;0.00;;;;;;;8.61;100.00;98356.38;5257692;28;20021;-67
2022/11/17 07:41:38;;;;;;;0.00;0.00;;;;;;;8.60;100.00;98354.69;5255417;28;20103;-67
2022/11/17 07:44:10;;;;;;;0.00;0.00;;;;;;;8.59;100.00;98354.84;5251192;28;20039;-67
2022/11/17 07:46:41;;;;;;;0.00;0.00;;;;;;;8.51;100.00;98353.03;5245494;28;20074;-67
2022/11/17 07:49:13;;;;;;;0.00;0.00;;;;;;;8.55;100.00;98367.66;5242310;28;20115;-67
2022/11/17 07:51:44;;;;;;;0.15;0.00;;;;;;;8.53;100.00;98360.84;5239907;28;20387;-67
2022/11/17 07:54:15;;;;;;;0.52;0.00;;;;;;;8.54;100.00;98365.19;5240248;28;20123;-68
2022/11/17 07:56:47;;;;;;;0.00;0.00;;;;;;;8.54;100.00;98376.63;5243242;28;20041;-67
2022/11/17 07:59:18;;;;;;;0.10;0.00;;;;;;;8.54;100.00;98384.59;5244862;28;20067;-67
2022/11/17 08:01:49;;;;;;;0.00;0.00;;;;;;;8.55;100.00;98388.94;5244374;28;20044;-67
2022/11/17 08:04:20;;;;;;;0.00;0.00;;;;;;;8.56;100.00;98390.59;5242601;28;20033;-67
2022/11/17 08:06:52;;;;;;;0.10;0.00;;;;;;;8.55;100.00;98388.94;5243029;28;20100;-68
2022/11/17 08:09:23;;;;;;;0.00;0.00;;;;;;;8.54;100.00;98397.88;5241542;28;20025;-68
2022/11/17 08:11:56;;;;;;;0.13;0.10;;;;;;;8.58;100.00;98403.72;5242558;28;20021;-67
2022/11/17 08:14:28;;;;;;;0.00;0.00;;;;;;;8.58;100.00;98409.03;5242192;28;20116;-67
2022/11/17 08:16:59;;;;;;;0.00;0.00;;;;;;;8.56;100.00;98400.38;5238411;28;20043;-67
2022/11/17 08:19:31;;;;;;;0.00;0.00;;;;;;;8.55;100.00;98412.84;5239910;28;20036;-69
2022/11/17 08:22:02;;;;;;;0.00;0.00;;;;;;;8.52;100.00;98407.03;5242081;28;20037;-67
2022/11/17 08:24:33;;;;;;;0.00;0.00;;;;;;;8.54;100.00;98413.00;5242407;28;20111;-67
2022/11/17 08:27:05;;;;;;;0.00;0.00;;;;;;;8.52;100.00;98415.81;5246667;28;20583;-67
2022/11/17 08:29:36;;;;;;;0.00;0.00;;;;;;;8.52;100.00;98417.66;5247236;28;20025;-67
2022/11/17 08:32:07;;;;;;;0.00;0.00;;;;;;;8.51;100.00;98422.13;5252141;28;20029;-67
2022/11/17 08:34:38;;;;;;;0.00;0.00;;;;;;;8.52;100.00;98415.00;5251940;28;20029;-67
2022/11/17 08:37:10;;;;;;;0.05;0.00;;;;;;;8.49;100.00;98424.13;5255433;28;20031;-67
2022/11/17 08:39:41;;;;;;;0.00;0.00;;;;;;;8.49;100.00;98424.13;5253332;28;20028;-67
2022/11/17 08:42:12;;;;;;;0.08;0.00;;;;;;;8.46;100.00;98429.78;5256189;28;20033;-67
2022/11/17 08:44:44;;;;;;;0.00;0.00;;;;;;;8.43;100.00;98428.25;5251850;28;20087;-67
2022/11/17 08:47:15;;;;;;;0.10;0.00;;;;;;;8.41;100.00;98422.28;5250218;28;20029;-67
2022/11/17 08:49:46;;;;;;;0.00;0.00;;;;;;;8.43;100.00;98432.75;5255351;28;20033;-67
2022/11/17 08:52:18;;;;;;;0.00;0.00;;;;;;;8.42;100.00;98431.94;5247803;28;20025;-67
2022/11/17 08:54:51;;;;;;;0.00;0.00;;;;;;;8.42;100.00;98434.59;5254847;28;20083;-67
2022/11/17 08:57:22;;;;;;;0.00;0.00;;;;;;;8.43;100.00;98438.88;5251097;28;20080;-67
2022/11/17 08:59:53;;;;;;;0.00;0.00;;;;;;;8.39;100.00;98440.19;5253473;28;20519;-67
2022/11/17 09:02:25;;;;;;;0.00;0.00;;;;;;;8.43;100.00;98441.53;5254077;28;20033;-67
2022/11/17 09:04:56;;;;;;;0.00;0.00;;;;;;;8.43;100.00;98448.69;5255744;28;20393;-68
2022/11/17 09:07:30;;;;;;;0.00;0.00;;;;;;;8.41;100.00;98443.53;5252807;28;20462;-67
2022/11/17 09:10:05;;;;;;;;;;;;;;;8.42;100.00;98453.19;5246755;28;20026;-67
2022/11/17 09:12:36;;;;;;;0.00;0.00;;;;;;;8.40;100.00;98459.63;5255244;28;20390;-67
2022/11/17 09:15:08;;;;;;;0.00;0.00;;;;;;;8.40;100.00;98471.09;5241365;28;20029;-67
2022/11/17 09:17:42;;;;;;;0.00;0.00;;;;;;;8.40;100.00;98460.47;5256078;28;20075;-67
2022/11/17 09:20:18;;;;;;;0.00;0.00;;;;;;;8.40;100.00;98470.25;5248069;28;20351;-67
2022/11/17 09:22:49;;;;;;;0.00;0.00;;;;;;;8.40;100.00;98464.94;5251676;28;20399;-68
2022/11/17 09:25:20;;;;;;;0.20;0.10;;;;;;;8.39;100.00;98464.09;5253983;28;20476;-68
2022/11/17 09:27:52;;;;;;;0.00;0.00;;;;;;;8.40;100.00;98470.25;5249893;28;20051;-68
2022/11/17 09:30:23;;;;;;;0.00;0.00;;;;;;;8.43;100.00;98477.91;5249070;28;20040;-67
2022/11/17 09:32:54;;;;;;;0.00;0.00;;;;;;;8.44;100.00;98477.75;5249682;28;20207;-68
2022/11/17 09:35:26;;;;;;;0.00;0.00;;;;;;;8.46;100.00;98482.94;5252793;28;20047;-68
2022/11/17 09:37:59;;;;;;;0.00;0.00;;;;;;;8.48;100.00;98488.09;5246518;28;20037;-68
2022/11/17 09:40:32;;;;;;;0.00;0.00;;;;;;;8.49;100.00;98479.91;5250779;28;20037;-68
2022/11/17 09:43:14;;;;;;;0.00;0.00;;;;;;;8.53;100.00;98496.38;5256204;28;20040;-68
2022/11/17 09:45:46;;;;;;;0.00;0.00;;;;;;;8.56;100.00;98496.06;5252831;28;20143;-68
2022/11/17 09:48:35;;;;;;;0.00;0.00;;;;;;;8.62;100.00;98500.72;5249385;28;20059;-68
2022/11/17 09:51:11;;;;;;;0.00;0.00;;;;;;;8.68;100.00;98502.72;5246922;28;20037;-68
2022/11/17 09:53:53;;;;;;;0.10;0.00;;;;;;;8.75;100.00;98505.59;5246751;28;20032;-68
2022/11/17 09:56:26;;;;;;;0.00;0.00;;;;;;;8.77;100.00;98516.88;5248932;28;20475;-67
2022/11/17 09:59:03;;;;;;;0.00;0.00;;;;;;;8.80;100.00;98508.56;5248553;28;20064;-68
2022/11/17 10:01:34;;;;;;;0.00;0.00;;;;;;;8.80;100.00;98506.75;5247825;28;20039;-68
2022/11/17 10:04:15;;;;;;;0.00;0.00;;;;;;;8.80;100.00;98513.88;5255225;28;20028;-68
2022/11/17 10:06:49;;;;;;;0.22;0.00;;;;;;;8.80;100.00;98522.72;5250825;28;20025;-68
2022/11/17 10:09:32;;;;;;;0.10;0.00;;;;;;;8.83;100.00;98524.19;5246985;28;20589;-68
2022/11/17 10:12:46;;;;;;;1.35;0.00;;;;;;;8.84;100.00;98523.22;5251741;28;20028;-68
2022/11/17 10:15:24;;;;;;;4.18;0.00;;;;;;;8.86;100.00;98531.00;5245020;28;20468;-68
2022/11/17 10:17:55;;;;;;;0.00;0.00;;;;;;;8.91;100.00;98523.38;5249815;28;20035;-67
2022/11/17 10:20:26;;;;;;;0.00;0.00;;;;;;;8.93;100.00;98535.50;5250356;28;20033;-67
2022/11/17 10:22:58;;;;;;;0.10;0.00;;;;;;;8.94;100.00;98528.38;5243594;28;20041;-67
2022/11/17 10:25:39;;;;;;;0.00;0.00;;;;;;;8.97;100.00;98536.00;5249844;28;20725;-68
2022/11/17 10:28:43;;;;;;;0.08;0.00;;;;;;;9.00;100.00;98543.69;5252863;28;20064;-67
2022/11/17 10:31:18;;;;;;;0.00;0.00;;;;;;;9.03;100.00;98548.66;5219419;28;20043;-68
2022/11/17 10:33:49;;;;;;;0.00;0.00;;;;;;;9.05;100.00;98552.00;5252871;28;20047;-68
2022/11/17 10:36:25;;;;;;;0.60;0.00;;;;;;;9.10;100.00;98554.16;5249613;28;20075;-70
2022/11/17 10:38:59;;;;;;;0.25;0.00;;;;;;;9.11;100.00;98563.78;5246646;28;20395;-68
2022/11/17 10:41:40;;;;;;;0.00;0.00;;;;;;;9.13;100.00;98561.81;5247645;28;20082;-68
2022/11/17 10:44:11;;;;;;;0.00;0.00;;;;;;;9.17;100.00;98569.28;5246337;28;20041;-68
2022/11/17 10:47:02;;;;;;;0.22;0.00;;;;;;;9.17;100.00;98571.13;5250193;28;20087;-68
2022/11/17 10:49:36;;;;;;;0.00;0.00;;;;;;;9.16;100.00;98567.63;5253491;28;20025;-68
2022/11/17 10:52:08;;;;;;;0.10;0.00;;;;;;;9.18;100.00;98557.66;5241298;28;20029;-69
2022/11/17 10:54:39;;;;;;;0.10;0.00;;;;;;;9.19;100.00;98563.81;5253989;28;20393;-68
2022/11/17 10:57:20;;;;;;;0.00;0.00;;;;;;;9.21;100.00;98567.16;5253704;28;20045;-68
2022/11/17 10:59:56;;;;;;;0.00;0.00;;;;;;;9.21;100.00;98564.47;5244347;28;20554;-67
2022/11/17 11:02:33;;;;;;;0.00;0.00;;;;;;;9.18;100.00;98567.47;5255670;28;20070;-68
2022/11/17 11:05:15;;;;;;;0.00;0.00;;;;;;;9.15;100.00;98584.59;5256718;28;20029;-67
2022/11/17 11:07:49;;;;;;;0.00;0.00;;;;;;;9.15;100.00;98581.13;5254663;28;20037;-69
2022/11/17 11:10:33;;;;;;;0.00;0.00;;;;;;;9.16;100.00;98586.25;5235334;28;20035;-68
2022/11/17 11:13:26;;;;;;;0.00;0.00;;;;;;;9.19;100.00;98583.25;5250475;28;21016;-67
2022/11/17 11:15:57;;;;;;;0.10;0.00;;;;;;;9.22;100.00;98577.63;5257512;28;20063;-68
2022/11/17 11:18:30;;;;;;;0.00;0.00;;;;;;;9.24;100.00;98585.41;5251669;28;20041;-67
2022/11/17 11:21:21;;;;;;;0.00;0.00;;;;;;;9.25;100.00;98587.09;5250826;28;20060;-67
2022/11/17 11:24:20;;;;;;;0.00;0.00;;;;;;;9.26;100.00;98587.94;5257534;28;20032;-67
2022/11/17 11:27:29;;;;;;;0.10;0.00;;;;;;;9.18;100.00;98594.88;5251473;28;20112;-68
2022/11/17 11:30:05;;;;;;;0.00;0.00;;;;;;;9.20;100.00;98595.59;5193842;28;20563;-68
2022/11/17 11:33:01;;;;;;;0.00;0.00;;;;;;;9.20;100.00;98600.91;5246380;28;20067;-68
2022/11/17 11:36:00;;;;;;;0.00;0.00;;;;;;;9.19;100.00;98601.06;5248209;28;20032;-67
2022/11/17 11:38:51;;;;;;;0.00;0.00;;;;;;;9.18;100.00;98618.00;5250907;28;20087;-68
2022/11/17 11:41:36;;;;;;;0.00;0.00;;;;;;;9.15;100.00;98619.19;5250136;28;20106;-68
2022/11/17 11:44:31;;;;;;;0.00;0.00;;;;;;;9.18;100.00;98618.00;5251726;28;20110;-68
2022/11/17 11:47:21;;;;;;;0.00;0.00;;;;;;;9.19;100.00;98625.84;5258050;28;20036;-68
2022/11/17 11:49:59;;;;;;;0.10;0.00;;;;;;;9.21;100.00;98631.81;5246479;28;20064;-68
2022/11/17 11:52:35;;;;;;;0.00;0.00;;;;;;;9.23;100.00;98634.31;5254973;28;20025;-68
2022/11/17 11:55:29;;;;;;;0.00;0.00;;;;;;;9.24;100.00;98625.34;5248662;28;20033;-67
2022/11/17 11:58:10;;;;;;;0.00;0.00;;;;;;;9.21;100.00;98623.03;5252256;28;20053;-68
2022/11/17 12:00:45;;;;;;;0.00;0.00;;;;;;;9.19;100.00;98625.84;5250142;28;20525;-67
2022/11/17 12:03:31;;;;;;;0.00;0.00;;;;;;;9.17;100.00;98635.81;5245710;28;20048;-68
2022/11/17 12:09:27;;;;;;;0.00;0.00;;;;;;;9.14;100.00;98641.44;5252124;28;20415;-68
2022/11/17 12:12:04;;;;;;;0.00;0.00;;;;;;;9.14;100.00;98637.97;5254103;28;20040;-68
2022/11/17 12:14:37;;;;;;;0.00;0.00;;;;;;;9.16;100.00;98630.66;5250421;28;20037;-68
2022/11/17 12:17:24;;;;;;;0.00;0.00;;;;;;;9.15;100.00;98629.81;5255503;28;20064;-69
2022/11/17 12:20:02;;;;;;;0.13;0.00;;;;;;;9.16;100.00;98636.78;5253823;28;20037;-68
2022/11/17 12:22:44;;;;;;;0.20;0.00;;;;;;;9.17;100.00;98627.81;5254865;28;20371;-68
2022/11/17 12:25:22;;;;;;;0.00;0.00;;;;;;;9.19;100.00;98635.66;5255335;28;20043;-68
2022/11/17 12:27:54;;;;;;;0.00;0.00;;;;;;;9.19;100.00;98652.44;5248362;28;20044;-68
2022/11/17 12:30:45;;;;;;;0.00;0.00;;;;;;;9.20;100.00;98640.81;5248373;28;20079;-68
2022/11/17 12:33:17;;;;;;;0.00;0.00;;;;;;;9.21;100.00;98638.97;5240811;28;20383;-68
2022/11/17 12:36:23;;;;;;;0.00;0.00;;;;;;;9.25;100.00;98653.63;5251742;28;20032;-68
2022/11/17 12:38:55;;;;;;;0.00;0.00;;;;;;;9.27;100.00;98662.28;5250060;28;20060;-68
2022/11/17 12:41:48;;;;;;;0.00;0.00;;;;;;;9.28;100.00;98655.13;5253627;28;20513;-69
2022/11/17 12:44:37;;;;;;;0.00;0.00;;;;;;;9.28;100.00;98655.13;5254117;28;20032;-68